Terminal Aerodrome Forecast
Issued by NWS Cleveland, OH

Home | Current Version | Previous Version | Text Only | Print | Product List | Glossary On
Versions: 1 2 3 4 5 6 7 8 9 10 11 12 13 14 15 16 17
000
FTUS41 KCLE 211000 AAA
TAFCAK
TAF AMD
KCAK 211047Z 2111/2206 22012KT P6SM SCT015 BKN035
     FM211330 25012G22KT P6SM BKN020 OVC035
      TEMPO 2114/2117 OVC018
     FM212000 30014G20KT P6SM VCSH BKN035
     FM220200 33010KT P6SM BKN030=

USA.gov is the U.S. government's official web portal to all federal, state and local government web resources and services.